Time;durP1;ratioP1;P1;durP2;ratioP2;P2;SDS_P1;SDS_P2;PMS_P1;PMS_P2;Temp;Humidity;BMP_temperature;BMP_pressure;BME280_temperature;BME280_humidity;BME280_pressure;Samples;Min_cycle;Max_cycle;Signal;HPM_P1;HPM_P2
2021/12/27 00:00:48;;;;;;;27.13;16.53;;;;;;;;;;5013005;28;20226;-61
2021/12/27 00:03:14;;;;;;;21.43;14.00;;;;;;;;;;5011640;28;20327;-61
2021/12/27 00:05:39;;;;;;;24.07;15.13;;;;;;;;;;5011304;28;20215;-61
2021/12/27 00:08:04;;;;;;;22.07;14.80;;;;;;;;;;5012840;28;20208;-61
2021/12/27 00:10:30;;;;;;;24.57;15.47;;;;;;;;;;5012325;28;20672;-61
2021/12/27 00:12:56;;;;;;;22.63;14.63;;;;;;;;;;5013028;28;20679;-61
2021/12/27 00:15:21;;;;;;;21.40;14.63;;;;;;;;;;5012335;28;20303;-61
2021/12/27 00:17:47;;;;;;;22.17;14.53;;;;;;;;;;5012265;28;20220;-61
2021/12/27 00:20:14;;;;;;;23.07;14.37;;;;;;;;;;5011089;28;20232;-61
2021/12/27 00:22:39;;;;;;;22.57;14.60;;;;;;;;;;5012745;28;20209;-61
2021/12/27 00:25:05;;;;;;;21.00;14.23;;;;;;;;;;5010511;28;20222;-61
2021/12/27 00:27:30;;;;;;;24.27;15.00;;;;;;;;;;5012617;28;20217;-61
2021/12/27 00:29:55;;;;;;;23.33;14.90;;;;;;;;;;5012642;28;20213;-61
2021/12/27 00:32:21;;;;;;;21.90;14.50;;;;;;;;;;5011481;28;20215;-61
2021/12/27 00:34:46;;;;;;;23.87;15.60;;;;;;;;;;5012661;28;20235;-61
2021/12/27 00:37:11;;;;;;;20.03;14.03;;;;;;;;;;5012174;28;20625;-61
2021/12/27 00:39:37;;;;;;;22.40;14.13;;;;;;;;;;5011983;28;20224;-61
2021/12/27 00:42:02;;;;;;;24.80;15.57;;;;;;;;;;5012091;28;20244;-61
2021/12/27 00:44:27;;;;;;;23.40;14.50;;;;;;;;;;5012548;28;20213;-61
2021/12/27 00:46:53;;;;;;;25.37;15.90;;;;;;;;;;5009994;28;20641;-61
2021/12/27 00:49:18;;;;;;;24.30;16.30;;;;;;;;;;5011900;28;20226;-61
2021/12/27 00:51:43;;;;;;;22.27;14.70;;;;;;;;;;5012230;28;20264;-61
2021/12/27 00:54:09;;;;;;;22.53;13.83;;;;;;;;;;5011057;28;20216;-61
2021/12/27 00:56:34;;;;;;;23.07;14.57;;;;;;;;;;5012368;28;20303;-61
2021/12/27 00:58:59;;;;;;;23.87;15.53;;;;;;;;;;5010832;28;20314;-61
2021/12/27 01:01:24;;;;;;;24.33;15.20;;;;;;;;;;5010758;28;20216;-61
2021/12/27 01:03:50;;;;;;;20.63;14.30;;;;;;;;;;5012258;28;20212;-61
2021/12/27 01:06:15;;;;;;;20.63;14.03;;;;;;;;;;5011476;28;20217;-61
2021/12/27 01:08:40;;;;;;;23.47;14.57;;;;;;;;;;5011224;28;20216;-61
2021/12/27 01:11:23;;;;;;;22.57;14.83;;;;;;;;;;5011544;28;20221;-61
2021/12/27 01:14:00;;;;;;;24.33;15.97;;;;;;;;;;5011077;28;20220;-61
2021/12/27 01:16:26;;;;;;;19.93;13.70;;;;;;;;;;5010365;28;20255;-61
2021/12/27 01:18:51;;;;;;;23.43;15.53;;;;;;;;;;5010275;28;20244;-61
2021/12/27 01:21:17;;;;;;;23.00;15.27;;;;;;;;;;5010590;28;20220;-61
2021/12/27 01:23:42;;;;;;;22.47;14.33;;;;;;;;;;5011560;28;20554;-61
2021/12/27 01:26:08;;;;;;;23.37;14.90;;;;;;;;;;5011222;28;20223;-61
2021/12/27 01:28:33;;;;;;;21.70;14.37;;;;;;;;;;5009606;28;20213;-61
2021/12/27 01:30:59;;;;;;;26.23;15.37;;;;;;;;;;5011505;28;20311;-61
2021/12/27 01:33:25;;;;;;;22.87;14.47;;;;;;;;;;5011075;28;20305;-61
2021/12/27 01:35:50;;;;;;;21.13;14.50;;;;;;;;;;5010704;28;20299;-61
2021/12/27 01:38:15;;;;;;;22.63;14.73;;;;;;;;;;5010876;28;20293;-61
2021/12/27 01:40:41;;;;;;;24.70;15.90;;;;;;;;;;5011419;28;20248;-61
2021/12/27 01:43:09;;;;;;;21.47;14.63;;;;;;;;;;5010206;28;20236;-61
2021/12/27 01:45:35;;;;;;;23.07;15.23;;;;;;;;;;5011309;28;20278;-61
2021/12/27 01:48:00;;;;;;;23.80;14.33;;;;;;;;;;5010776;28;20216;-61
2021/12/27 01:50:26;;;;;;;22.50;15.07;;;;;;;;;;5010792;28;20209;-61
2021/12/27 01:52:51;;;;;;;24.70;15.13;;;;;;;;;;5011170;28;20718;-61
2021/12/27 01:55:16;;;;;;;23.80;15.33;;;;;;;;;;5009526;28;20221;-61
2021/12/27 01:57:42;;;;;;;23.53;15.20;;;;;;;;;;5010230;28;20630;-61
2021/12/27 02:00:07;;;;;;;24.13;15.90;;;;;;;;;;5010632;28;20271;-61
2021/12/27 02:02:33;;;;;;;22.27;14.60;;;;;;;;;;5009633;28;20216;-61
2021/12/27 02:04:58;;;;;;;22.67;13.93;;;;;;;;;;5009084;28;20224;-61
2021/12/27 02:07:23;;;;;;;23.33;14.60;;;;;;;;;;5010247;28;20887;-61
2021/12/27 02:10:01;;;;;;;24.07;14.83;;;;;;;;;;5010793;28;20258;-61
2021/12/27 02:12:26;;;;;;;23.93;15.73;;;;;;;;;;5010703;28;20212;-61
2021/12/27 02:14:51;;;;;;;24.30;15.27;;;;;;;;;;5010874;28;20215;-61
2021/12/27 02:17:17;;;;;;;22.33;14.67;;;;;;;;;;5009526;28;20243;-61
2021/12/27 02:19:46;;;;;;;23.00;14.30;;;;;;;;;;5010743;28;20216;-61
2021/12/27 02:22:11;;;;;;;20.37;14.37;;;;;;;;;;5010166;28;20216;-61
2021/12/27 02:24:36;;;;;;;23.03;15.07;;;;;;;;;;5009939;28;20212;-61
2021/12/27 02:27:02;;;;;;;23.97;13.90;;;;;;;;;;5010300;28;20236;-61
2021/12/27 02:29:27;;;;;;;24.50;14.13;;;;;;;;;;5010329;28;20205;-61
2021/12/27 02:31:52;;;;;;;26.73;15.00;;;;;;;;;;5008805;28;20308;-61
2021/12/27 02:34:18;;;;;;;24.73;14.73;;;;;;;;;;5010085;28;20575;-61
2021/12/27 02:36:43;;;;;;;23.57;14.47;;;;;;;;;;5010768;28;20288;-61
2021/12/27 02:39:08;;;;;;;21.67;14.10;;;;;;;;;;5009016;28;20786;-61
2021/12/27 02:41:33;;;;;;;21.10;13.77;;;;;;;;;;5009107;28;20230;-61
2021/12/27 02:43:59;;;;;;;20.17;13.63;;;;;;;;;;5010435;28;20216;-61
2021/12/27 02:46:24;;;;;;;20.93;13.47;;;;;;;;;;5009039;28;20216;-61
2021/12/27 02:48:50;;;;;;;19.73;13.57;;;;;;;;;;5010191;28;20719;-61
2021/12/27 02:51:17;;;;;;;22.03;14.60;;;;;;;;;;5010028;28;20219;-61
2021/12/27 02:53:44;;;;;;;21.80;14.93;;;;;;;;;;5009422;28;20251;-61
2021/12/27 02:56:09;;;;;;;19.00;13.10;;;;;;;;;;5009969;28;20212;-61
2021/12/27 02:58:34;;;;;;;21.67;13.77;;;;;;;;;;5010294;28;20775;-61
2021/12/27 03:01:01;;;;;;;22.23;12.70;;;;;;;;;;5009605;28;20716;-61
2021/12/27 03:03:27;;;;;;;20.73;13.27;;;;;;;;;;5009769;28;20222;-61
2021/12/27 03:05:52;;;;;;;26.03;14.17;;;;;;;;;;5008740;28;20217;-61
2021/12/27 03:08:18;;;;;;;20.90;13.60;;;;;;;;;;5008869;28;20231;-61
2021/12/27 03:10:44;;;;;;;24.43;14.53;;;;;;;;;;5009002;28;20230;-61
2021/12/27 03:13:14;;;;;;;21.53;14.33;;;;;;;;;;5009606;28;20570;-61
2021/12/27 03:15:39;;;;;;;21.80;13.83;;;;;;;;;;5009802;28;20219;-61
2021/12/27 03:18:05;;;;;;;18.17;12.00;;;;;;;;;;5009547;28;20220;-61
2021/12/27 03:20:30;;;;;;;21.53;13.93;;;;;;;;;;5009306;28;20228;-61
2021/12/27 03:22:55;;;;;;;20.07;13.63;;;;;;;;;;5009999;28;20320;-61
2021/12/27 03:25:21;;;;;;;19.83;13.17;;;;;;;;;;5009358;28;20576;-61
2021/12/27 03:27:47;;;;;;;21.03;13.20;;;;;;;;;;5008148;28;20266;-61
2021/12/27 03:30:13;;;;;;;19.67;12.63;;;;;;;;;;5008320;28;20286;-61
2021/12/27 03:32:38;;;;;;;19.43;13.00;;;;;;;;;;5010109;28;20295;-61
2021/12/27 03:35:10;;;;;;;20.33;12.87;;;;;;;;;;5008605;28;20804;-61
2021/12/27 03:37:35;;;;;;;20.90;13.40;;;;;;;;;;5009884;28;20872;-61
2021/12/27 03:40:01;;;;;;;22.13;13.67;;;;;;;;;;5008891;28;20220;-63
2021/12/27 03:42:26;;;;;;;22.87;14.17;;;;;;;;;;5011715;28;20215;-61
2021/12/27 03:44:52;;;;;;;19.83;13.47;;;;;;;;;;5013549;28;20675;-61
2021/12/27 03:47:17;;;;;;;20.10;12.70;;;;;;;;;;5013000;28;20715;-61
2021/12/27 03:49:42;;;;;;;24.03;13.60;;;;;;;;;;5012616;28;20219;-61
2021/12/27 03:52:08;;;;;;;20.67;13.53;;;;;;;;;;5011815;28;20660;-61
2021/12/27 03:54:33;;;;;;;22.17;13.57;;;;;;;;;;5013216;28;20219;-61
2021/12/27 03:56:58;;;;;;;20.57;12.67;;;;;;;;;;5012617;28;20224;-61
2021/12/27 03:59:38;;;;;;;19.40;13.00;;;;;;;;;;5012778;28;20217;-61
2021/12/27 04:02:03;;;;;;;17.80;12.10;;;;;;;;;;5012854;28;20837;-61
2021/12/27 04:04:29;;;;;;;18.97;12.70;;;;;;;;;;5012175;28;20271;-61
2021/12/27 04:06:54;;;;;;;22.60;13.20;;;;;;;;;;5013260;28;20632;-61
2021/12/27 04:09:20;;;;;;;19.47;12.87;;;;;;;;;;5011148;28;20222;-61
2021/12/27 04:11:45;;;;;;;20.93;13.10;;;;;;;;;;5012398;28;20624;-61
2021/12/27 04:14:10;;;;;;;20.23;13.20;;;;;;;;;;5012462;28;20220;-61
2021/12/27 04:16:36;;;;;;;20.30;13.17;;;;;;;;;;5012376;28;20248;-61
2021/12/27 04:19:01;;;;;;;22.23;12.97;;;;;;;;;;5012354;28;20223;-61
2021/12/27 04:21:26;;;;;;;20.00;13.20;;;;;;;;;;5012649;28;20216;-61
2021/12/27 04:23:51;;;;;;;21.87;13.37;;;;;;;;;;5012256;28;20222;-61
2021/12/27 04:26:17;;;;;;;21.37;13.17;;;;;;;;;;5010951;28;20726;-61
2021/12/27 04:28:42;;;;;;;19.77;13.23;;;;;;;;;;5012965;28;20251;-61
2021/12/27 04:31:07;;;;;;;19.27;12.80;;;;;;;;;;5011627;28;20217;-61
2021/12/27 04:33:32;;;;;;;19.30;12.60;;;;;;;;;;5012738;28;20220;-61
2021/12/27 04:35:58;;;;;;;20.43;12.87;;;;;;;;;;5012360;28;20614;-61
2021/12/27 04:38:23;;;;;;;20.10;13.10;;;;;;;;;;5010197;28;20212;-61
2021/12/27 04:40:49;;;;;;;22.20;13.33;;;;;;;;;;5012274;28;20236;-61
2021/12/27 04:43:16;;;;;;;20.20;13.07;;;;;;;;;;5012196;28;20213;-61
2021/12/27 04:45:41;;;;;;;19.63;13.00;;;;;;;;;;5011570;28;20222;-61
2021/12/27 04:48:07;;;;;;;18.20;11.70;;;;;;;;;;5011910;28;20212;-62
2021/12/27 04:50:32;;;;;;;22.53;14.30;;;;;;;;;;5011831;28;20548;-61
2021/12/27 04:52:57;;;;;;;21.03;12.90;;;;;;;;;;5010365;28;20217;-61
2021/12/27 04:55:23;;;;;;;24.17;13.37;;;;;;;;;;5011683;28;20212;-61
2021/12/27 04:57:48;;;;;;;22.73;14.37;;;;;;;;;;5010687;28;20212;-61
2021/12/27 05:00:14;;;;;;;22.10;13.50;;;;;;;;;;5001618;28;20231;-61
2021/12/27 05:02:39;;;;;;;20.00;12.83;;;;;;;;;;5007818;28;20221;-61
2021/12/27 05:05:04;;;;;;;18.37;11.63;;;;;;;;;;5005649;28;20637;-62
2021/12/27 05:07:30;;;;;;;19.30;12.77;;;;;;;;;;5011220;28;20213;-61
2021/12/27 05:09:55;;;;;;;20.40;13.53;;;;;;;;;;5011971;28;20242;-61
2021/12/27 05:12:20;;;;;;;21.20;13.10;;;;;;;;;;5011330;28;20219;-61
2021/12/27 05:14:45;;;;;;;21.10;12.83;;;;;;;;;;5011177;28;20213;-61
2021/12/27 05:17:11;;;;;;;22.97;13.03;;;;;;;;;;5011452;28;20216;-62
2021/12/27 05:19:36;;;;;;;22.40;13.70;;;;;;;;;;5011696;28;20223;-61
2021/12/27 05:22:01;;;;;;;19.73;12.87;;;;;;;;;;5010549;28;20755;-62
2021/12/27 05:24:28;;;;;;;21.47;12.97;;;;;;;;;;5010440;28;20243;-61
2021/12/27 05:26:53;;;;;;;20.17;12.97;;;;;;;;;;5010904;28;20223;-61
2021/12/27 05:29:19;;;;;;;19.63;12.40;;;;;;;;;;5011164;28;20216;-61
2021/12/27 05:31:44;;;;;;;23.47;13.27;;;;;;;;;;5011596;28;20208;-61
2021/12/27 05:34:10;;;;;;;21.67;12.93;;;;;;;;;;5010563;28;20231;-61
2021/12/27 05:36:36;;;;;;;22.50;13.20;;;;;;;;;;5011507;28;20239;-61
2021/12/27 05:39:01;;;;;;;24.27;13.63;;;;;;;;;;5011045;28;20240;-62
2021/12/27 05:41:26;;;;;;;18.77;12.33;;;;;;;;;;5010774;28;20197;-61
2021/12/27 05:43:52;;;;;;;21.30;12.40;;;;;;;;;;5011516;28;20569;-61
2021/12/27 05:46:17;;;;;;;22.30;13.00;;;;;;;;;;5010502;28;20232;-61
2021/12/27 05:48:42;;;;;;;20.37;12.63;;;;;;;;;;5010568;28;20807;-61
2021/12/27 05:51:07;;;;;;;21.93;13.40;;;;;;;;;;5010803;28;20739;-62
2021/12/27 05:53:33;;;;;;;21.53;13.43;;;;;;;;;;5011333;28;20739;-61
2021/12/27 05:55:58;;;;;;;22.13;12.43;;;;;;;;;;5010388;28;20235;-61
2021/12/27 05:58:25;;;;;;;19.37;12.47;;;;;;;;;;5010540;28;20266;-61
2021/12/27 06:00:50;;;;;;;22.00;12.73;;;;;;;;;;5010942;28;20251;-61
2021/12/27 06:03:15;;;;;;;20.70;12.60;;;;;;;;;;5009302;28;20239;-61
2021/12/27 06:05:41;;;;;;;21.07;13.23;;;;;;;;;;5010779;28;20276;-61
2021/12/27 06:08:06;;;;;;;23.20;13.90;;;;;;;;;;5010491;28;20622;-61
2021/12/27 06:10:31;;;;;;;22.43;13.27;;;;;;;;;;5010272;28;20285;-61
2021/12/27 06:12:57;;;;;;;22.40;12.93;;;;;;;;;;5009476;28;20211;-61
2021/12/27 06:15:22;;;;;;;25.27;13.30;;;;;;;;;;5010352;28;20209;-61
2021/12/27 06:17:47;;;;;;;27.57;13.73;;;;;;;;;;5010062;28;20852;-61
2021/12/27 06:20:13;;;;;;;22.67;13.27;;;;;;;;;;5009026;28;20220;-61
2021/12/27 06:22:40;;;;;;;21.73;13.57;;;;;;;;;;5010620;28;20240;-61
2021/12/27 06:25:05;;;;;;;20.00;12.93;;;;;;;;;;5009612;28;20208;-61
2021/12/27 06:27:31;;;;;;;21.73;14.23;;;;;;;;;;5010387;28;20208;-61
2021/12/27 06:29:57;;;;;;;22.13;12.85;;;;;;;;;;5010764;28;20220;-61
2021/12/27 06:32:22;;;;;;;26.03;14.17;;;;;;;;;;5009505;28;20224;-61
2021/12/27 06:34:47;;;;;;;23.00;13.60;;;;;;;;;;5010665;28;20621;-61
2021/12/27 06:37:13;;;;;;;25.60;13.20;;;;;;;;;;5009479;28;20220;-61
2021/12/27 06:39:38;;;;;;;21.40;13.83;;;;;;;;;;5010334;28;20560;-61
2021/12/27 06:42:05;;;;;;;26.03;14.73;;;;;;;;;;5010019;28;20218;-61
2021/12/27 06:44:30;;;;;;;24.80;14.30;;;;;;;;;;5009654;28;20212;-61
2021/12/27 06:46:59;;;;;;;26.47;15.07;;;;;;;;;;5008845;28;20275;-61
2021/12/27 06:49:25;;;;;;;27.43;15.40;;;;;;;;;;5009981;28;20265;-61
2021/12/27 06:51:50;;;;;;;27.10;14.70;;;;;;;;;;5009663;28;20684;-61
2021/12/27 06:54:15;;;;;;;23.13;15.17;;;;;;;;;;5009937;28;20212;-61
2021/12/27 06:56:40;;;;;;;27.37;14.33;;;;;;;;;;5010236;28;20211;-61
2021/12/27 06:59:06;;;;;;;24.60;15.83;;;;;;;;;;5009052;28;20216;-61
2021/12/27 07:01:31;;;;;;;24.60;14.83;;;;;;;;;;5010265;28;20303;-61
2021/12/27 07:03:56;;;;;;;21.13;13.77;;;;;;;;;;5010219;28;20591;-61
2021/12/27 07:06:22;;;;;;;22.67;14.27;;;;;;;;;;5009133;28;20204;-63
2021/12/27 07:08:47;;;;;;;24.57;14.60;;;;;;;;;;5008818;28;20673;-62
2021/12/27 07:11:13;;;;;;;21.38;13.63;;;;;;;;;;5009312;28;20485;-60
2021/12/27 07:13:38;;;;;;;26.70;13.73;;;;;;;;;;5009615;28;20784;-62
2021/12/27 07:16:04;;;;;;;23.67;14.40;;;;;;;;;;5013669;28;20208;-59
2021/12/27 07:18:29;;;;;;;24.20;14.77;;;;;;;;;;5014223;28;20211;-60
2021/12/27 07:20:55;;;;;;;27.63;14.77;;;;;;;;;;5013447;28;20228;-60
2021/12/27 07:23:20;;;;;;;23.07;14.13;;;;;;;;;;5012812;28;20726;-60
2021/12/27 07:25:45;;;;;;;24.23;14.53;;;;;;;;;;5013604;28;20208;-60
2021/12/27 07:28:11;;;;;;;23.43;14.03;;;;;;;;;;5012424;28;20228;-60
2021/12/27 07:30:36;;;;;;;21.73;13.93;;;;;;;;;;5013753;28;20728;-60
2021/12/27 07:33:01;;;;;;;23.77;14.57;;;;;;;;;;5011607;28;20270;-60
2021/12/27 07:35:27;;;;;;;23.03;14.00;;;;;;;;;;5012846;28;20217;-59
2021/12/27 07:37:52;;;;;;;26.83;14.77;;;;;;;;;;5013705;28;20230;-59
2021/12/27 07:40:17;;;;;;;23.57;14.40;;;;;;;;;;5011802;28;20311;-59
2021/12/27 07:42:43;;;;;;;27.43;14.73;;;;;;;;;;5012769;28;20660;-59
2021/12/27 07:45:08;;;;;;;26.50;14.67;;;;;;;;;;5013101;28;20212;-60
2021/12/27 07:47:33;;;;;;;25.10;13.83;;;;;;;;;;5012423;28;20316;-59
2021/12/27 07:49:59;;;;;;;22.50;14.30;;;;;;;;;;5013585;28;20251;-59
2021/12/27 07:52:24;;;;;;;23.67;14.03;;;;;;;;;;5012946;28;20674;-59
2021/12/27 07:54:50;;;;;;;23.67;14.60;;;;;;;;;;5012588;28;20248;-59
2021/12/27 07:57:16;;;;;;;22.73;14.83;;;;;;;;;;5012820;28;20246;-60
2021/12/27 07:59:42;;;;;;;25.53;15.27;;;;;;;;;;5013201;28;20222;-59
2021/12/27 08:02:08;;;;;;;24.97;14.13;;;;;;;;;;5011451;28;20248;-60
2021/12/27 08:04:33;;;;;;;23.43;13.87;;;;;;;;;;5013319;28;20552;-59
2021/12/27 08:06:58;;;;;;;21.87;13.37;;;;;;;;;;5012948;28;20304;-59
2021/12/27 08:09:25;;;;;;;20.50;13.40;;;;;;;;;;5011967;28;20628;-60
2021/12/27 08:11:50;;;;;;;21.57;12.83;;;;;;;;;;5012998;28;20233;-60
2021/12/27 08:14:15;;;;;;;21.03;13.40;;;;;;;;;;5012794;28;20212;-59
2021/12/27 08:16:41;;;;;;;25.90;17.53;;;;;;;;;;5011213;28;20454;-60
2021/12/27 08:19:06;;;;;;;22.80;14.23;;;;;;;;;;5012362;28;20668;-61
2021/12/27 08:21:33;;;;;;;19.63;13.77;;;;;;;;;;5013074;28;20215;-60
2021/12/27 08:23:58;;;;;;;291.43;176.33;;;;;;;;;;5012046;28;20615;-60
2021/12/27 08:26:23;;;;;;;34.63;22.50;;;;;;;;;;5011607;28;20262;-60
2021/12/27 08:28:49;;;;;;;479.97;274.20;;;;;;;;;;5012954;28;20212;-60
2021/12/27 08:31:14;;;;;;;575.63;362.63;;;;;;;;;;5009785;28;20216;-60
2021/12/27 08:33:40;;;;;;;95.38;59.05;;;;;;;;;;5012450;28;20350;-60
2021/12/27 08:36:05;;;;;;;28.60;19.07;;;;;;;;;;5010850;28;20242;-60
2021/12/27 08:38:31;;;;;;;27.43;15.90;;;;;;;;;;5011813;28;20212;-60
2021/12/27 08:40:56;;;;;;;26.70;15.80;;;;;;;;;;5012059;28;20224;-60
2021/12/27 08:43:21;;;;;;;24.83;16.70;;;;;;;;;;5011899;28;20215;-60
2021/12/27 08:45:46;;;;;;;23.47;15.30;;;;;;;;;;5011439;28;20611;-61
2021/12/27 08:48:12;;;;;;;25.33;16.43;;;;;;;;;;5011804;28;20596;-61
2021/12/27 08:50:37;;;;;;;20.57;13.70;;;;;;;;;;5012416;28;20263;-60
2021/12/27 08:53:03;;;;;;;19.83;14.20;;;;;;;;;;5010979;28;20350;-61
2021/12/27 08:55:29;;;;;;;22.30;15.03;;;;;;;;;;5012135;28;20216;-60
2021/12/27 08:57:54;;;;;;;24.37;14.90;;;;;;;;;;5011277;28;20208;-60
2021/12/27 09:00:19;;;;;;;23.20;15.77;;;;;;;;;;5011663;28;20311;-60
2021/12/27 09:02:45;;;;;;;28.73;19.73;;;;;;;;;;5011580;28;20211;-60
2021/12/27 09:05:10;;;;;;;24.67;16.47;;;;;;;;;;5009041;28;20573;-62
2021/12/27 09:07:36;;;;;;;21.10;14.50;;;;;;;;;;5012094;28;20216;-61
2021/12/27 09:10:01;;;;;;;21.83;14.97;;;;;;;;;;5011426;28;20575;-60
2021/12/27 09:12:26;;;;;;;22.53;15.63;;;;;;;;;;5011186;28;20212;-61
2021/12/27 09:14:52;;;;;;;22.90;14.50;;;;;;;;;;5011869;28;20339;-60
2021/12/27 09:17:17;;;;;;;20.43;14.13;;;;;;;;;;5011533;28;20232;-61
2021/12/27 09:19:43;;;;;;;24.57;15.10;;;;;;;;;;5011093;28;20246;-61
2021/12/27 09:22:08;;;;;;;24.43;15.43;;;;;;;;;;5011338;28;20706;-61
2021/12/27 09:24:34;;;;;;;25.50;16.53;;;;;;;;;;5011591;28;20215;-61
2021/12/27 09:26:59;;;;;;;26.50;16.63;;;;;;;;;;5011015;28;20228;-61
2021/12/27 09:29:25;;;;;;;25.67;16.47;;;;;;;;;;5010787;28;20584;-61
2021/12/27 09:31:50;;;;;;;27.13;17.20;;;;;;;;;;5010242;28;20227;-61
2021/12/27 09:34:16;;;;;;;27.27;17.50;;;;;;;;;;5010397;28;20212;-61
2021/12/27 09:36:41;;;;;;;23.33;16.03;;;;;;;;;;5011435;28;20266;-61
2021/12/27 09:39:06;;;;;;;25.73;16.73;;;;;;;;;;5010002;28;20286;-61
2021/12/27 09:41:31;;;;;;;22.70;15.47;;;;;;;;;;5010679;28;20213;-61
2021/12/27 09:43:57;;;;;;;24.90;15.77;;;;;;;;;;5011267;28;20204;-61
2021/12/27 09:46:22;;;;;;;20.33;13.50;;;;;;;;;;5009424;28;20287;-61
2021/12/27 09:48:48;;;;;;;19.93;13.57;;;;;;;;;;5010440;28;20710;-61
2021/12/27 09:51:13;;;;;;;21.27;14.17;;;;;;;;;;5010891;28;20784;-61
2021/12/27 09:53:39;;;;;;;23.13;13.97;;;;;;;;;;5011322;28;20209;-61
2021/12/27 09:56:10;;;;;;;22.00;14.47;;;;;;;;;;5008853;28;20765;-61
2021/12/27 09:58:35;;;;;;;20.77;13.13;;;;;;;;;;5010950;28;20244;-61
2021/12/27 10:01:03;;;;;;;19.63;12.67;;;;;;;;;;5010716;28;20236;-61
2021/12/27 10:03:29;;;;;;;19.70;13.10;;;;;;;;;;5010083;28;20209;-61
2021/12/27 10:06:00;;;;;;;22.00;13.80;;;;;;;;;;5011024;28;20228;-61
2021/12/27 10:08:29;;;;;;;21.40;13.90;;;;;;;;;;5008279;28;20299;-61
2021/12/27 10:10:57;;;;;;;21.07;14.07;;;;;;;;;;5009720;28;20213;-61
2021/12/27 10:13:22;;;;;;;22.83;14.67;;;;;;;;;;5010248;28;20208;-61
2021/12/27 10:15:49;;;;;;;20.90;13.97;;;;;;;;;;5010284;28;20563;-61
2021/12/27 10:18:14;;;;;;;22.63;14.33;;;;;;;;;;5010223;28;20287;-61
2021/12/27 10:20:40;;;;;;;21.33;13.57;;;;;;;;;;5010691;28;20311;-61
2021/12/27 10:23:06;;;;;;;21.50;14.20;;;;;;;;;;5008451;28;20204;-61
2021/12/27 10:25:31;;;;;;;20.10;13.90;;;;;;;;;;5010636;28;20621;-61
2021/12/27 10:27:57;;;;;;;20.87;14.40;;;;;;;;;;5010411;28;20208;-61
2021/12/27 10:30:23;;;;;;;20.53;14.03;;;;;;;;;;5009413;28;20208;-68
2021/12/27 10:33:07;;;;;;;19.13;13.60;;;;;;;;;;5010514;28;20631;-62
2021/12/27 10:35:34;;;;;;;78.43;59.43;;;;;;;;;;5010221;28;20212;-60
2021/12/27 10:38:10;;;;;;;24.07;16.47;;;;;;;;;;5009718;28;20219;-59
2021/12/27 10:40:36;;;;;;;19.57;13.00;;;;;;;;;;5008884;28;20228;-60
2021/12/27 10:43:01;;;;;;;24.20;16.73;;;;;;;;;;5010047;28;20215;-61
2021/12/27 10:45:26;;;;;;;21.77;14.80;;;;;;;;;;5009580;28;20583;-60
2021/12/27 10:47:52;;;;;;;22.88;15.65;;;;;;;;;;4992264;28;20239;-60
2021/12/27 10:50:18;;;;;;;21.53;13.33;;;;;;;;;;5009411;28;20676;-59
2021/12/27 10:52:46;;;;;;;20.10;13.50;;;;;;;;;;5008537;28;20593;-59
2021/12/27 10:55:12;;;;;;;21.58;14.30;;;;;;;;;;5009780;28;20691;-59
2021/12/27 10:57:37;;;;;;;21.45;14.07;;;;;;;;;;5009536;28;20208;-59
2021/12/27 11:00:13;;;;;;;22.20;15.32;;;;;;;;;;5009507;28;20232;-60
2021/12/27 11:02:39;;;;;;;20.43;14.80;;;;;;;;;;5010379;28;20727;-59
2021/12/27 11:05:12;;;;;;;22.50;14.60;;;;;;;;;;5008893;28;20289;-60
2021/12/27 11:07:39;;;;;;;24.57;16.40;;;;;;;;;;4990747;28;20217;-59
2021/12/27 11:10:04;;;;;;;22.60;15.63;;;;;;;;;;4988954;28;20217;-60
2021/12/27 11:12:30;;;;;;;22.20;14.93;;;;;;;;;;4990031;28;20296;-59
2021/12/27 11:14:55;;;;;;;21.93;14.47;;;;;;;;;;4990522;28;20696;-59
2021/12/27 11:17:20;;;;;;;22.77;15.80;;;;;;;;;;4990195;28;20279;-59
2021/12/27 11:19:45;;;;;;;20.50;14.53;;;;;;;;;;4988162;28;20575;-59
2021/12/27 11:22:11;;;;;;;20.17;14.57;;;;;;;;;;4999265;28;20219;-60
2021/12/27 11:24:38;;;;;;;21.33;14.93;;;;;;;;;;5008759;28;20216;-59
2021/12/27 11:27:10;;;;;;;22.43;14.90;;;;;;;;;;5008841;28;20243;-59
2021/12/27 11:29:35;;;;;;;22.47;13.47;;;;;;;;;;5009844;28;20204;-59
2021/12/27 11:32:11;;;;;;;21.87;13.77;;;;;;;;;;5009822;28;20216;-61
2021/12/27 11:34:52;;;;;;;22.23;13.93;;;;;;;;;;5009011;28;20602;-59
2021/12/27 11:37:17;;;;;;;20.63;13.17;;;;;;;;;;5009609;28;20208;-60
2021/12/27 11:39:43;;;;;;;18.23;13.00;;;;;;;;;;5009046;28;20225;-59
2021/12/27 11:42:09;;;;;;;17.87;12.10;;;;;;;;;;5009549;28;20275;-60
2021/12/27 11:44:36;;;;;;;19.20;11.70;;;;;;;;;;5008532;28;20204;-60
2021/12/27 11:47:02;;;;;;;17.33;11.33;;;;;;;;;;5008543;28;20243;-60
2021/12/27 11:49:42;;;;;;;17.45;11.32;;;;;;;;;;5009799;28;20200;-60
2021/12/27 11:52:13;;;;;;;17.13;11.63;;;;;;;;;;5009661;28;20243;-60
2021/12/27 11:54:40;;;;;;;14.55;10.27;;;;;;;;;;5007873;28;20420;-60
2021/12/27 11:57:05;;;;;;;14.73;10.17;;;;;;;;;;5007811;28;20287;-61
2021/12/27 11:59:35;;;;;;;15.95;10.65;;;;;;;;;;5009551;28;20307;-60
2021/12/27 12:02:04;;;;;;;15.00;10.47;;;;;;;;;;5009946;28;20628;-59
2021/12/27 12:04:42;;;;;;;14.40;10.07;;;;;;;;;;5012758;28;20209;-60
2021/12/27 12:07:08;;;;;;;17.05;11.45;;;;;;;;;;5012625;28;20213;-60
2021/12/27 12:09:43;;;;;;;14.48;10.07;;;;;;;;;;5006423;28;20754;-60
2021/12/27 12:12:11;;;;;;;16.63;10.50;;;;;;;;;;5010864;28;20199;-60
2021/12/27 12:14:36;;;;;;;21.40;16.87;;;;;;;;;;5001210;28;20217;-60
2021/12/27 12:17:03;;;;;;;14.70;10.17;;;;;;;;;;4995680;28;20224;-60
2021/12/27 12:19:35;;;;;;;17.38;11.68;;;;;;;;;;4998832;28;20731;-60
2021/12/27 12:22:00;;;;;;;15.87;10.73;;;;;;;;;;4997077;28;20220;-60
2021/12/27 12:24:25;;;;;;;17.65;11.05;;;;;;;;;;5005813;28;20208;-59
2021/12/27 12:26:52;;;;;;;17.00;11.57;;;;;;;;;;5007238;28;20286;-59
2021/12/27 12:29:17;;;;;;;16.80;10.48;;;;;;;;;;5004641;28;20278;-60
2021/12/27 12:31:42;;;;;;;19.00;10.77;;;;;;;;;;5005631;28;20653;-60
2021/12/27 12:34:09;;;;;;;16.40;10.95;;;;;;;;;;5006790;28;20208;-60
2021/12/27 12:36:48;;;;;;;16.52;9.98;;;;;;;;;;5005879;28;20266;-60
2021/12/27 12:39:13;;;;;;;15.82;10.15;;;;;;;;;;4998707;28;20833;-61
2021/12/27 12:41:40;;;;;;;14.57;10.32;;;;;;;;;;4995773;28;20220;-61
2021/12/27 12:44:06;;;;;;;15.35;9.75;;;;;;;;;;4996839;28;20933;-62
2021/12/27 12:46:41;;;;;;;18.05;12.60;;;;;;;;;;5003176;28;20256;-61
2021/12/27 12:49:07;;;;;;;15.52;9.60;;;;;;;;;;5004070;28;20601;-62
2021/12/27 12:51:35;;;;;;;13.80;9.47;;;;;;;;;;5005092;28;20556;-61
2021/12/27 12:54:00;;;;;;;16.88;9.45;;;;;;;;;;5006185;28;20246;-65
2021/12/27 12:56:27;;;;;;;14.38;9.45;;;;;;;;;;5004956;28;20311;-61
2021/12/27 12:58:53;;;;;;;14.02;9.30;;;;;;;;;;5004252;28;20259;-61
2021/12/27 13:01:18;;;;;;;15.80;10.05;;;;;;;;;;4996308;28;20330;-61
2021/12/27 13:03:44;;;;;;;16.27;10.15;;;;;;;;;;4998234;28;20216;-61
2021/12/27 13:06:09;;;;;;;14.65;9.43;;;;;;;;;;4997108;28;20216;-61
2021/12/27 13:08:34;;;;;;;14.93;9.77;;;;;;;;;;5001724;28;20262;-61
2021/12/27 13:11:02;;;;;;;16.40;9.82;;;;;;;;;;5006765;28;20220;-61
2021/12/27 13:13:27;;;;;;;14.52;9.02;;;;;;;;;;5003880;28;20578;-61
2021/12/27 13:15:52;;;;;;;14.32;9.25;;;;;;;;;;5000859;28;20213;-62
2021/12/27 13:18:18;;;;;;;16.45;9.05;;;;;;;;;;5005182;28;20216;-62
2021/12/27 13:20:45;;;;;;;14.15;9.40;;;;;;;;;;5006102;28;20692;-61
2021/12/27 13:23:11;;;;;;;14.45;10.02;;;;;;;;;;5003151;28;20615;-62
2021/12/27 13:25:44;;;;;;;13.73;9.25;;;;;;;;;;4997910;28;20217;-61
2021/12/27 13:28:11;;;;;;;15.45;9.60;;;;;;;;;;4996041;28;20417;-62
2021/12/27 13:30:43;;;;;;;15.13;9.70;;;;;;;;;;4997637;28;20221;-61
2021/12/27 13:33:09;;;;;;;14.65;9.57;;;;;;;;;;5004862;28;20299;-62
2021/12/27 13:35:34;;;;;;;14.30;9.43;;;;;;;;;;5005844;28;20295;-61
2021/12/27 13:37:59;;;;;;;16.10;10.05;;;;;;;;;;5005545;28;20270;-61
2021/12/27 13:40:24;;;;;;;15.05;10.10;;;;;;;;;;5003362;28;20676;-61
2021/12/27 13:42:50;;;;;;;15.40;10.13;;;;;;;;;;5006064;28;20704;-61
2021/12/27 13:45:16;;;;;;;14.65;9.32;;;;;;;;;;5002169;28;20216;-62
2021/12/27 13:47:48;;;;;;;14.75;9.85;;;;;;;;;;4995544;28;20342;-61
2021/12/27 13:50:13;;;;;;;14.75;9.82;;;;;;;;;;4995118;28;20258;-62
2021/12/27 13:52:42;;;;;;;14.93;9.05;;;;;;;;;;4997811;28;20224;-62
2021/12/27 13:55:07;;;;;;;14.10;9.27;;;;;;;;;;4999782;28;20212;-62
2021/12/27 13:57:33;;;;;;;13.32;8.93;;;;;;;;;;5005374;28;20230;-62
2021/12/27 13:59:59;;;;;;;14.93;9.38;;;;;;;;;;5004825;28;20220;-62
2021/12/27 14:02:35;;;;;;;13.30;9.13;;;;;;;;;;4999676;28;20212;-62
2021/12/27 14:05:01;;;;;;;15.00;9.63;;;;;;;;;;5005138;28;20778;-62
2021/12/27 14:07:26;;;;;;;15.75;9.25;;;;;;;;;;5004208;28;20327;-62
2021/12/27 14:09:51;;;;;;;15.00;9.27;;;;;;;;;;4998074;28;20220;-62
2021/12/27 14:12:22;;;;;;;13.63;8.77;;;;;;;;;;4997029;28;20220;-61